Flight Track Log - Related Links

Times and Time Zones

All times are in EDT time to prevent confusion due to time zone crossing. See the SWA279 flight status page for this flight to view local times or setup timezone preferences in your user account.

Time Position Orientation Groundspeed Altitude Reporting Facility
EDT Latitude Longitude Course Direction KTS MPH feet Rate Location/Type
Fri 06:53:12 AM 42.9167 -71.4167 228° Southwest 150 173 1,400  Level KA90
Fri 06:54:12 AM 42.8833 -71.4667 228° Southwest 190 219 3,700 2,214 Climbing KA90
Fri 06:54:36 AM 42.8967 -71.4906 307° West 247 284 4,500 2,860 Climbing Boston Center
Fri 06:55:38 AM 42.9450 -71.5608 313° West 272 313 7,800 3,050 Climbing Boston Center
Fri 06:56:36 AM 42.9647 -71.6628 285° West 251 289 10,600 2,319 Climbing Boston Center
Fri 06:57:37 AM 42.9717 -71.7761 275° West 303 349 12,400 2,459 Climbing Boston Center
Fri 06:58:38 AM 42.9806 -71.9208 275° West 340 391 15,600 2,800 Climbing Boston Center
Fri 06:59:37 AM 42.9894 -72.0456 276° West 371 427 18,000 2,420 Climbing Boston Center
Fri 07:01:39 AM 43.0131 -72.3522 276° West 385 443 22,900 2,300 Climbing Boston Center
Fri 07:02:37 AM 43.0214 -72.5053 274° West 397 457 24,900 1,800 Climbing Boston Center
Fri 07:03:39 AM 43.0233 -72.6444 271° West 409 471 26,500 1,475 Climbing Boston Center
Fri 07:04:39 AM 43.0292 -72.8036 273° West 415 478 27,900 1,311 Climbing Boston Center
Fri 07:05:38 AM 43.0389 -72.9714 275° West 428 493 29,100 1,563 Climbing Boston Center
Fri 07:06:38 AM 43.0525 -73.1561 276° West 446 513 31,000 2,085 Climbing Boston Center
Fri 07:07:36 AM 43.0600 -73.3039 274° West 441 507 33,200 1,835 Climbing Boston Center
Fri 07:08:39 AM 43.0625 -73.4772 271° West 431 496 34,700 1,366 Climbing Boston Center
Fri 07:09:39 AM 43.0694 -73.6308 274° West 424 488 36,000 661 Climbing Boston Center
Fri 07:10:37 AM 43.0761 -73.7844 273° West 418 481 36,000  Level Boston Center
Fri 07:11:39 AM 43.0867 -73.9411 275° West 413 475 36,000  Level Boston Center
Fri 07:12:38 AM 43.0928 -74.0947 273° West 413 475 36,000  Level Boston Center
Fri 07:13:39 AM 43.0967 -74.2486 272° West 408 470 36,000  Level Boston Center
Fri 07:14:36 AM 43.1047 -74.3994 274° West 403 464 36,000  Level Boston Center
Fri 07:15:37 AM 43.1103 -74.5533 273° West 403 464 36,000  Level Boston Center
Fri 07:16:38 AM 43.1156 -74.7069 273° West 403 464 36,000  Level Boston Center
Fri 07:17:39 AM 43.1208 -74.8608 273° West 403 464 36,000  Level Boston Center
Fri 07:18:37 AM 43.1258 -75.0147 273° West 403 464 36,000  Level Boston Center
Fri 07:19:37 AM 43.1283 -75.1714 271° West 408 470 36,000  Level Boston Center
Fri 07:20:37 AM 43.1350 -75.3281 273° West 408 470 36,000  Level Boston Center
Fri 07:21:38 AM 43.1392 -75.4847 272° West 408 470 36,000  Level Boston Center
Fri 07:22:38 AM 43.1461 -75.6189 274° West 403 464 36,000  Level Boston Center
Fri 07:23:39 AM 43.1481 -75.7700 271° West 403 464 36,000  Level Boston Center
Fri 07:24:39 AM 43.1539 -75.9211 273° West 403 464 36,000  Level Boston Center
Fri 07:25:38 AM 43.1578 -76.0636 272° West 403 464 36,000  Level Boston Center
Fri 07:26:36 AM 43.1569 -76.2147 270° West 403 464 36,000  Level Boston Center
Fri 07:28:21 AM 43.0864 -76.4439 247° West 387 445 36,000  Level Cleveland Center
Fri 07:29:21 AM 43.0453 -76.5772 247° West 382 440 36,000  Level Cleveland Center
Fri 07:30:21 AM 42.9961 -76.7253 246° West 388 447 36,000  Level Cleveland Center
Fri 07:31:21 AM 42.9561 -76.8442 245° Southwest 388 447 36,000  Level Cleveland Center
Fri 07:32:21 AM 42.9144 -76.9742 246° West 388 447 36,000  Level Cleveland Center
Fri 07:33:21 AM 42.8706 -77.1069 246° West 388 447 36,000  Level Cleveland Center
Fri 07:34:21 AM 42.8306 -77.2367 247° West 388 447 36,000  Level Cleveland Center
Fri 07:35:21 AM 42.7864 -77.3664 245° Southwest 388 447 36,000  Level Cleveland Center
Fri 07:36:21 AM 42.7461 -77.4928 247° West 388 447 36,000  Level Cleveland Center
Fri 07:37:21 AM 42.7331 -77.6264 262° West 388 447 36,000  Level Cleveland Center
Fri 07:38:20 AM 42.7206 -77.8022 265° West 389 448 36,000  Level Cleveland Center
Fri 07:39:21 AM 42.7094 -77.9442 264° West 396 456 36,000  Level Cleveland Center
Fri 07:40:21 AM 42.6981 -78.0914 264° West 389 448 36,000  Level Cleveland Center
Fri 07:41:21 AM 42.6864 -78.2303 264° West 389 448 36,000  Level Cleveland Center
Fri 07:42:21 AM 42.6767 -78.3719 265° West 389 448 36,000  Level Cleveland Center
Fri 07:43:21 AM 42.6647 -78.5164 264° West 389 448 36,000  Level Cleveland Center
Fri 07:44:21 AM 42.6525 -78.6578 263° West 389 448 36,000  Level Cleveland Center
Fri 07:45:21 AM 42.6425 -78.8022 265° West 389 448 36,000  Level Cleveland Center
Fri 07:46:21 AM 42.6300 -78.9436 263° West 389 448 36,000  Level Cleveland Center
Fri 07:47:21 AM 42.6172 -79.0878 263° West 389 448 36,000  Level Cleveland Center
Fri 07:48:21 AM 42.6064 -79.2292 264° West 389 448 36,000  Level Cleveland Center
Fri 07:49:21 AM 42.5956 -79.3703 264° West 389 448 36,000  Level Cleveland Center
Fri 07:50:21 AM 42.5825 -79.5144 263° West 389 448 36,000 200 Level Cleveland Center
Fri 07:51:21 AM 42.5692 -79.6556 263° West 389 448 36,400 850 Climbing Cleveland Center
Fri 07:52:21 AM 42.5597 -79.7967 265° West 389 448 37,700 800 Climbing Cleveland Center
Fri 07:53:21 AM 42.5439 -79.9378 261° West 389 448 38,000 150 Climbing Cleveland Center
Fri 07:54:21 AM 42.5300 -80.0789 262° West 389 448 38,000  Level Cleveland Center
Fri 07:55:21 AM 42.5158 -80.2228 262° West 389 448 38,000  Level Cleveland Center
Fri 07:56:21 AM 42.5017 -80.3608 262° West 383 441 38,000  Level Cleveland Center
Fri 07:57:21 AM 42.4894 -80.5017 263° West 384 442 38,000  Level Cleveland Center
Fri 07:58:21 AM 42.4747 -80.6422 262° West 378 435 38,000  Level Cleveland Center
Fri 07:59:21 AM 42.4622 -80.7633 262° West 378 435 38,000  Level Cleveland Center
Fri 08:00:21 AM 42.4472 -80.9039 262° West 378 435 38,000  Level Cleveland Center
Fri 08:01:21 AM 42.4342 -81.0417 263° West 373 429 38,000  Level Cleveland Center
Fri 08:02:21 AM 42.4211 -81.1794 263° West 373 429 38,000  Level Cleveland Center
Fri 08:03:21 AM 42.4058 -81.3169 261° West 373 429 38,000  Level Cleveland Center
Fri 08:04:21 AM 42.3922 -81.4575 263° West 368 423 38,000  Level Cleveland Center
Fri 08:05:21 AM 42.3767 -81.5922 261° West 368 423 38,000  Level Cleveland Center
Fri 08:06:21 AM 42.3608 -81.7239 261° West 368 423 38,000  Level Cleveland Center
Fri 08:07:21 AM 42.3469 -81.8586 262° West 368 423 38,000  Level Cleveland Center
Fri 08:08:21 AM 42.3325 -82.0100 263° West 363 418 38,000  Level Cleveland Center
Fri 08:09:21 AM 42.3183 -82.1417 262° West 369 425 38,000  Level Cleveland Center
Fri 08:10:21 AM 42.3000 -82.2592 258° West 364 419 38,000  Level Cleveland Center
Fri 08:11:21 AM 42.2856 -82.3906 262° West 364 419 38,000  Level Cleveland Center
Fri 08:12:21 AM 42.2708 -82.5250 262° West 369 425 38,000  Level Cleveland Center
Fri 08:13:21 AM 42.2558 -82.6592 261° West 369 425 38,000  Level Cleveland Center
Fri 08:14:21 AM 42.2389 -82.7961 261° West 369 425 38,000  Level Cleveland Center
Fri 08:15:21 AM 42.2236 -82.9300 261° West 369 425 38,000  Level Cleveland Center
Fri 08:16:21 AM 42.2061 -83.0639 260° West 369 425 38,000  Level Cleveland Center
Fri 08:17:21 AM 42.1883 -83.2147 261° West 369 425 38,000  Level Cleveland Center
Fri 08:18:21 AM 42.1725 -83.3514 261° West 381 438 38,000  Level Cleveland Center
Fri 08:19:21 AM 42.1592 -83.4739 262° West 371 427 38,000  Level Cleveland Center
Fri 08:20:21 AM 42.1389 -83.6131 259° West 371 427 38,000  Level Cleveland Center
Fri 08:21:21 AM 42.1200 -83.7661 261° West 376 433 38,000  Level Cleveland Center
Fri 08:22:21 AM 42.1039 -83.8997 261° West 371 427 38,000  Level Cleveland Center
Fri 08:23:21 AM 42.0853 -84.0331 259° West 371 427 38,000  Level Cleveland Center
Fri 08:24:21 AM 42.0686 -84.1692 261° West 371 427 38,000  Level Cleveland Center
Fri 08:26:12 AM 42.0422 -84.3911 261° West 367 422 38,000  Level Chicago Center
Fri 08:27:13 AM 42.0194 -84.5542 259° West 366 421 38,000  Level Chicago Center
Fri 08:28:15 AM 42.0100 -84.6872 265° West 367 422 38,000  Level Chicago Center
Fri 08:29:17 AM 42.0100 -84.8272 270° West 375 432 38,000  Level Chicago Center
Fri 08:30:19 AM 42.0083 -84.9667 269° West 373 429 38,000  Level Chicago Center
Fri 08:31:20 AM 42.0075 -85.1036 270° West 370 426 38,000  Level Chicago Center
Fri 08:32:22 AM 42.0058 -85.2439 269° West 374 430 38,000  Level Chicago Center
Fri 08:33:24 AM 42.0044 -85.3847 269° West 376 433 38,000  Level Chicago Center
Fri 08:34:26 AM 42.0017 -85.5411 269° West 378 435 38,000  Level Chicago Center
Fri 08:35:28 AM 41.9997 -85.6797 269° West 375 432 38,000  Level Chicago Center
Fri 08:36:30 AM 41.9981 -85.8194 269° West 376 433 38,000  Level Chicago Center
Fri 08:37:32 AM 41.9953 -85.9889 269° West 380 437 38,000  Level Chicago Center
Fri 08:38:34 AM 41.9931 -86.1314 269° West 383 441 38,000  Level Chicago Center
Fri 08:39:35 AM 41.9900 -86.2761 268° West 387 445 38,000  Level Chicago Center
Fri 08:40:37 AM 41.9858 -86.4217 268° West 392 451 38,000  Level Chicago Center
Fri 08:41:39 AM 41.9833 -86.5661 269° West 389 448 38,000  Level Chicago Center
Fri 08:42:41 AM 41.9806 -86.7228 269° West 391 450 38,000  Level Chicago Center
Fri 08:43:43 AM 41.9761 -86.8678 268° West 392 451 38,000  Level Chicago Center
Fri 08:44:45 AM 41.9722 -87.0411 268° West 389 448 38,000  Level Chicago Center
Fri 08:45:46 AM 41.9675 -87.1858 268° West 390 449 38,000  Level Chicago Center
Fri 08:46:48 AM 41.9639 -87.3317 268° West 393 452 38,000  Level Chicago Center
Fri 08:47:50 AM 41.9578 -87.4775 267° West 395 455 38,000  Level Chicago Center
Fri 08:48:52 AM 41.9533 -87.6258 268° West 400 460 38,000  Level Chicago Center
Fri 08:49:54 AM 41.9492 -87.7764 268° West 405 466 38,000  Level Chicago Center
Fri 08:50:55 AM 41.9428 -87.9542 267° West 402 463 38,000  Level Chicago Center
Fri 08:51:57 AM 41.9378 -88.1014 267° West 400 460 38,000  Level Chicago Center
Fri 08:52:59 AM 41.9322 -88.2494 267° West 402 463 38,000  Level Chicago Center
Fri 08:54:00 AM 41.9264 -88.3958 267° West 398 458 38,000  Level Chicago Center
Fri 08:55:02 AM 41.9203 -88.5447 267° West 403 464 38,000  Level Chicago Center
Fri 08:56:04 AM 41.9133 -88.7219 267° West 401 461 38,000  Level Chicago Center
Fri 08:57:06 AM 41.9067 -88.8708 267° West 402 463 38,000  Level Chicago Center
Fri 08:58:07 AM 41.9000 -89.0189 267° West 401 461 38,000  Level Chicago Center
Fri 08:59:09 AM 41.8933 -89.1658 267° West 399 459 38,000  Level Chicago Center
Fri 09:00:11 AM 41.8875 -89.3142 267° West 400 460 38,000  Level Chicago Center
Fri 09:01:12 AM 41.8822 -89.4575 267° West 391 450 38,000  Level Chicago Center
Fri 09:02:14 AM 41.8708 -89.6317 265° West 392 451 38,000  Level Chicago Center
Fri 09:03:16 AM 41.8639 -89.7794 266° West 397 457 38,000  Level Chicago Center
Fri 09:04:17 AM 41.8594 -89.9069 267° West 399 459 38,000  Level Chicago Center
Fri 09:05:19 AM 41.8508 -90.0817 266° West 395 455 38,000  Level Chicago Center
Fri 09:06:21 AM 41.8419 -90.2286 265° West 397 457 38,000  Level Chicago Center
Fri 09:07:22 AM 41.8361 -90.3739 267° West 393 452 38,000  Level Chicago Center
Fri 09:08:24 AM 41.8267 -90.5228 265° West 399 459 38,000  Level Chicago Center
Fri 09:09:26 AM 41.8150 -90.6775 264° West 421 484 38,000  Level Chicago Center
Fri 09:10:28 AM 41.8069 -90.8253 266° West 405 466 38,000  Level Chicago Center
Fri 09:11:29 AM 41.7967 -91.0056 266° West 405 466 38,000  Level Chicago Center
Fri 09:12:31 AM 41.7869 -91.1558 265° West 406 467 38,000  Level Chicago Center
Fri 09:13:33 AM 41.7783 -91.3086 266° West 410 472 38,000  Level Chicago Center
Fri 09:14:35 AM 41.7675 -91.4628 265° West 416 479 38,000  Level Chicago Center
Fri 09:15:36 AM 41.7569 -91.6158 265° West 415 478 38,000  Level Chicago Center
Fri 09:16:38 AM 41.7464 -91.7683 265° West 414 476 38,000  Level Chicago Center
Fri 09:17:40 AM 41.7361 -91.9214 265° West 413 475 38,000  Level Chicago Center
Fri 09:18:42 AM 41.7247 -92.1053 265° West 415 478 38,000  Level Chicago Center
Fri 09:19:44 AM 41.7128 -92.2569 264° West 414 476 38,000  Level Chicago Center
Fri 09:20:46 AM 41.7025 -92.4097 265° West 413 475 38,000  Level Chicago Center
Fri 09:21:47 AM 41.6908 -92.5631 264° West 416 479 38,000  Level Chicago Center
Fri 09:22:44 AM 41.6778 -92.7178 264° West 414 476 38,000  Level Minneapolis Center
Fri 09:23:46 AM 41.6661 -92.8689 264° West 415 478 38,000  Level Minneapolis Center
Fri 09:24:47 AM 41.6542 -93.0194 264° West 413 475 38,000  Level Minneapolis Center
Fri 09:25:49 AM 41.6414 -93.1728 264° West 418 481 38,000  Level Minneapolis Center
Fri 09:26:51 AM 41.6272 -93.3531 264° West 413 475 38,000  Level Minneapolis Center
Fri 09:27:52 AM 41.6139 -93.5053 263° West 415 478 38,000  Level Minneapolis Center
Fri 09:28:54 AM 41.6031 -93.6508 264° West 405 466 38,000  Level Minneapolis Center
Fri 09:29:55 AM 41.5908 -93.8019 264° West 410 472 38,000  Level Minneapolis Center
Fri 09:30:57 AM 41.5769 -93.9564 263° West 419 482 38,000  Level Minneapolis Center
Fri 09:31:58 AM 41.5642 -94.1067 264° West 415 478 38,000  Level Minneapolis Center
Fri 09:33:00 AM 41.5486 -94.2697 263° West 420 483 38,000  Level Minneapolis Center
Fri 09:34:02 AM 41.5333 -94.4225 262° West 418 481 38,000  Level Minneapolis Center
Fri 09:35:03 AM 41.5178 -94.6075 264° West 418 481 38,000  Level Minneapolis Center
Fri 09:36:05 AM 41.5022 -94.7592 262° West 415 478 38,000  Level Minneapolis Center
Fri 09:37:06 AM 41.4878 -94.9128 263° West 416 479 38,000  Level Minneapolis Center
Fri 09:38:08 AM 41.4747 -95.0625 263° West 409 471 38,000  Level Minneapolis Center
Fri 09:39:09 AM 41.4592 -95.2150 262° West 415 478 38,000  Level Minneapolis Center
Fri 09:40:11 AM 41.4439 -95.3675 262° West 415 478 38,000  Level Minneapolis Center
Fri 09:41:13 AM 41.4275 -95.5189 262° West 413 475 38,000  Level Minneapolis Center
Fri 09:42:14 AM 41.4119 -95.6864 263° West 417 480 38,000  Level Minneapolis Center
Fri 09:43:16 AM 41.3961 -95.8406 262° West 419 482 38,000  Level Minneapolis Center
Fri 09:44:17 AM 41.3800 -95.9944 262° West 420 483 38,000  Level Minneapolis Center
Fri 09:45:19 AM 41.3639 -96.1450 262° West 413 475 38,000  Level Minneapolis Center
Fri 09:46:21 AM 41.3472 -96.2958 262° West 412 474 38,000  Level Minneapolis Center
Fri 09:47:22 AM 41.3311 -96.4467 262° West 411 473 38,000  Level Minneapolis Center
Fri 09:48:24 AM 41.3106 -96.6267 261° West 411 473 38,000  Level Minneapolis Center
Fri 09:49:26 AM 41.2931 -96.7744 261° West 407 468 38,000  Level Minneapolis Center
Fri 09:50:27 AM 41.2775 -96.9247 262° West 408 470 38,000  Level Minneapolis Center
Fri 09:51:29 AM 41.2600 -97.0739 261° West 409 471 38,000  Level Minneapolis Center
Fri 09:52:30 AM 41.2417 -97.2225 261° West 410 472 38,000  Level Minneapolis Center
Fri 09:53:32 AM 41.2236 -97.3728 261° West 410 472 38,000  Level Minneapolis Center
Fri 09:54:34 AM 41.2056 -97.5267 261° West 414 476 38,000  Level Minneapolis Center
Fri 09:55:35 AM 41.1844 -97.7058 261° West 410 472 38,000  Level Minneapolis Center
Fri 09:56:37 AM 41.1658 -97.8572 261° West 413 475 38,000  Level Minneapolis Center
Fri 09:57:38 AM 41.1475 -98.0064 261° West 411 473 38,000  Level Minneapolis Center
Fri 09:58:40 AM 41.1286 -98.1544 260° West 407 468 38,000  Level Minneapolis Center
Fri 09:59:42 AM 41.1103 -98.3042 261° West 409 471 38,000  Level Minneapolis Center
Fri 10:00:43 AM 41.0919 -98.4483 260° West 407 468 38,000  Level Minneapolis Center
Fri 10:01:45 AM 41.0733 -98.5978 261° West 410 472 38,000  Level Minneapolis Center
Fri 10:02:46 AM 41.0553 -98.7458 261° West 409 471 38,000  Level Minneapolis Center
Fri 10:03:48 AM 41.0353 -98.8942 260° West 408 470 38,000  Level Minneapolis Center
Fri 10:04:49 AM 41.0106 -99.0750 260° West 415 478 38,000  Level Minneapolis Center
Fri 10:05:22 AM 41.0000 -99.1533 260° West 417 480 38,000  Level Denver Center
Fri 10:06:24 AM 40.9792 -99.3061 260° West 420 483 38,000  Level Denver Center
Fri 10:07:25 AM 40.9581 -99.4608 260° West 424 488 38,000  Level Denver Center
Fri 10:08:27 AM 40.9369 -99.6150 260° West 425 489 38,000  Level Denver Center
Fri 10:09:28 AM 40.9164 -99.7644 260° West 416 479 38,000  Level Denver Center
Fri 10:10:29 AM 40.8950 -99.9117 259° West 408 470 38,000  Level Denver Center
Fri 10:11:31 AM 40.8717 -100.0733 259° West 403 464 38,000  Level Denver Center
Fri 10:12:32 AM 40.8517 -100.2122 259° West 403 464 38,000  Level Denver Center
Fri 10:13:34 AM 40.8275 -100.3742 259° West 401 461 38,000  Level Denver Center
Fri 10:14:35 AM 40.8083 -100.5144 260° West 404 465 38,000  Level Denver Center
Fri 10:15:37 AM 40.7881 -100.6542 259° West 403 464 38,000  Level Denver Center
Fri 10:16:38 AM 40.7644 -100.8150 259° West 409 471 38,000  Level Denver Center
Fri 10:17:40 AM 40.7353 -100.9686 256° West 414 476 38,000  Level Denver Center
Fri 10:18:41 AM 40.7114 -101.1117 258° West 416 479 38,000  Level Denver Center
Fri 10:19:43 AM 40.6825 -101.2772 257° West 415 478 38,000  Level Denver Center
Fri 10:20:44 AM 40.6589 -101.4169 257° West 411 473 38,000  Level Denver Center
Fri 10:21:46 AM 40.6353 -101.5556 257° West 406 467 38,000  Level Denver Center
Fri 10:22:48 AM 40.6050 -101.7181 256° West 410 472 38,000  Level Denver Center
Fri 10:23:49 AM 40.5806 -101.8561 257° West 405 466 38,000  Level Denver Center
Fri 10:24:51 AM 40.5492 -102.0169 256° West 407 468 38,000  Level Denver Center
Fri 10:25:53 AM 40.5250 -102.1547 257° West 403 464 38,000  Level Denver Center
Fri 10:26:54 AM 40.4939 -102.3153 256° West 406 467 38,000  Level Denver Center
Fri 10:27:56 AM 40.4700 -102.4531 257° West 404 465 38,000  Level Denver Center
Fri 10:28:58 AM 40.4400 -102.6131 256° West 405 466 38,000 -871 Level Denver Center
Fri 10:30:00 AM 40.4139 -102.7497 256° West 397 457 36,200 -2,293 Descending Denver Center
Fri 10:31:01 AM 40.3864 -102.8953 256° West 409 471 33,300 -2,878 Descending Denver Center
Fri 10:32:03 AM 40.3578 -103.0447 256° West 417 480 30,300 -2,468 Descending Denver Center
Fri 10:33:05 AM 40.3297 -103.1908 256° West 410 472 28,200 -2,081 Descending Denver Center
Fri 10:34:07 AM 40.3025 -103.3308 256° West 396 456 26,000 -2,081 Descending Denver Center
Fri 10:35:09 AM 40.2764 -103.4650 256° West 380 437 23,900 -2,177 Descending Denver Center
Fri 10:36:11 AM 40.2478 -103.6136 256° West 359 413 21,500 -1,887 Descending Denver Center
Fri 10:37:13 AM 40.2247 -103.7242 255° West 337 388 20,000 -1,306 Descending Denver Center
Fri 10:38:15 AM 40.2028 -103.8447 257° West 310 357 18,800 -1,268 Descending Denver Center
Fri 10:39:16 AM 40.2100 -103.9469 275° West 284 327 17,400 -1,415 Descending Denver Center
Fri 10:40:18 AM 40.2175 -104.0497 275° West 267 307 15,900 -1,500 Descending Denver Center
Fri 10:41:20 AM 40.2281 -104.1503 278° West 279 321 14,300 -1,548 Descending Denver Center
Fri 10:42:22 AM 40.2328 -104.2569 273° West 279 321 12,700 -1,210 Descending Denver Center
Fri 10:43:24 AM 40.1997 -104.3500 245° Southwest 283 326 11,800 -919 Descending Denver Center
Fri 10:44:26 AM 40.1642 -104.4417 243° Southwest 282 325 10,800 -1,258 Descending Denver Center
Fri 10:45:28 AM 40.1317 -104.5411 247° West 277 319 9,200 -1,425 Descending Denver Center
Fri 10:45:46 AM 40.1167 -104.5667 232° Southwest 270 311 8,900 -692 Descending Denver TRACON
Fri 10:46:46 AM 40.0833 -104.6333 237° Southwest 250 288 8,300 -509 Descending Denver TRACON
Fri 10:47:32 AM 40.0325 -104.6578 200° South 236 272 8,000 -778 Descending Denver Center
Fri 10:48:34 AM 39.9758 -104.6872 202° Southwest 221 254 6,900 -1,016 Descending Denver Center
Fri 10:49:36 AM 39.9242 -104.6867 180° South 170 196 5,900 -774 Descending Denver Center
Fri 10:50:38 AM 39.8883 -104.6875 181° South 147 169 5,300 -581 Descending Denver Center
Fri 10:52:00 AM 39.8617 -104.6732 North  Level Estimated
Fri 10:59:00 AM 39.8617 -104.6732 North  Level Estimated
Fri 11:00:00 AM 39.8617 -104.6732 North  Level Estimated

Login

Don't have an account? Register now (free) for customized features, flight alerts, and more!